KIKT

Nakika

Nakika, Mississippi, USA
METAR KIKT 191455Z AUTO 11007G12KT 070V130 10SM CLR 16/05 A3036 RMK A01
Observed Flight Rules
Jan-19 @ 14:55 UTC (25 minutes ago) Visual Flight Rules
Wind Visibility Clouds
110° at 7 knots
 Gusting to 12 knots
10 miles
  • Clear skies
Temperatures Readings
Current 16°C / 61°F
Dewpoint 5°C / 41°F
Humidity 48%
Altimeter 30.36" Hg
Pressure 1028 hPa
Elevation 25
METAR KIKT 191455Z AUTO 11007G12KT 070V130 10SM CLR 16/05 A3036 RMK A01
Observed Flight Rules
Jan-19 @ 14:55 UTC
(25 minutes ago)
VFR
Wind Visibility
110° at 7 knots
 Gusting to 12 knots
10 miles
Clouds
  • Clear skies
Temperature Dewpoint
16°C / 61°F 5°C / 41°F
Humidity Altimeter Pressure
48% 30.36" Hg 1028 hPa